Time;durP1;ratioP1;P1;durP2;ratioP2;P2;SDS_P1;SDS_P2;PMS_P1;PMS_P2;Temp;Humidity;BMP_temperature;BMP_pressure;BME280_temperature;BME280_humidity;BME280_pressure;Samples;Min_cycle;Max_cycle;Signal;HPM_P1;HPM_P2
2021/12/19 00:09:00;;;;;;;22.52;10.68;;;;;;;5.87;99.03;103569.84;5052710;28;20087;-55
2021/12/19 00:11:26;;;;;;;22.73;10.35;;;;;;;5.80;99.29;103570.84;5051459;28;20383;-56
2021/12/19 00:13:53;;;;;;;23.10;10.48;;;;;;;5.86;99.05;103567.28;5051948;28;20029;-57
2021/12/19 00:16:19;;;;;;;21.90;10.20;;;;;;;5.83;99.47;103563.03;5052286;28;20072;-56
2021/12/19 00:18:46;;;;;;;23.23;10.57;;;;;;;5.81;99.51;103558.81;5052263;28;20021;-57
2021/12/19 00:21:12;;;;;;;23.90;10.70;;;;;;;5.91;98.51;103554.59;5050928;28;20427;-56
2021/12/19 00:23:39;;;;;;;24.50;11.02;;;;;;;5.74;99.18;103562.41;5051923;28;20056;-57
2021/12/19 00:26:04;;;;;;;25.40;11.48;;;;;;;5.69;99.69;103566.81;5052212;28;20551;-57
2021/12/19 00:28:30;;;;;;;25.08;11.45;;;;;;;5.61;100.00;103563.22;5051786;28;20207;-57
2021/12/19 00:30:55;;;;;;;26.05;12.20;;;;;;;5.64;100.00;103559.19;5052094;28;20041;-57
2021/12/19 00:33:21;;;;;;;26.80;12.20;;;;;;;5.57;100.00;103559.16;5054641;28;20025;-57
2021/12/19 00:35:47;;;;;;;26.52;12.30;;;;;;;5.53;100.00;103557.88;5055276;28;20158;-57
2021/12/19 00:38:12;;;;;;;26.70;12.95;;;;;;;5.50;100.00;103560.19;5055864;28;20033;-56
2021/12/19 00:40:38;;;;;;;27.23;13.13;;;;;;;5.50;100.00;103551.94;5055408;28;20040;-57
2021/12/19 00:43:07;;;;;;;30.63;13.18;;;;;;;5.56;100.00;103549.22;5055250;28;20045;-56
2021/12/19 00:45:35;;;;;;;29.27;13.55;;;;;;;5.63;100.00;103541.03;5055724;28;20029;-57
2021/12/19 00:48:03;;;;;;;31.85;16.40;;;;;;;5.60;100.00;103545.03;5055663;28;20025;-57
2021/12/19 00:50:29;;;;;;;30.67;13.88;;;;;;;5.67;100.00;103546.94;5055167;28;20063;-57
2021/12/19 00:52:55;;;;;;;31.02;14.18;;;;;;;5.58;100.00;103555.38;5054867;28;20060;-57
2021/12/19 00:55:25;;;;;;;32.33;15.52;;;;;;;5.49;100.00;103544.75;5055154;28;20082;-56
2021/12/19 00:57:51;;;;;;;30.17;14.63;;;;;;;5.38;100.00;103544.31;5055361;28;20024;-56
2021/12/19 01:00:21;;;;;;;31.95;14.52;;;;;;;5.35;100.00;103538.38;5054926;28;20111;-56
2021/12/19 01:02:50;;;;;;;31.52;14.55;;;;;;;5.32;100.00;103539.63;5055217;28;20033;-56
2021/12/19 01:05:15;;;;;;;32.63;14.38;;;;;;;5.29;100.00;103540.06;5055398;28;20128;-56
2021/12/19 01:07:41;;;;;;;31.83;14.38;;;;;;;5.26;100.00;103537.72;5053689;28;20133;-58
2021/12/19 01:10:08;;;;;;;31.42;14.93;;;;;;;5.25;100.00;103536.84;5054688;28;20033;-56
2021/12/19 01:12:36;;;;;;;31.35;13.75;;;;;;;5.27;100.00;103534.75;5054833;28;20103;-56
2021/12/19 01:15:04;;;;;;;32.28;14.57;;;;;;;5.23;100.00;103529.88;5055483;28;20025;-56
2021/12/19 01:17:30;;;;;;;36.15;15.30;;;;;;;5.20;100.00;103533.88;5054332;28;20177;-56
2021/12/19 01:19:55;;;;;;;33.42;16.48;;;;;;;5.13;100.00;103527.53;5053412;28;20472;-56
2021/12/19 01:22:21;;;;;;;34.72;15.50;;;;;;;5.13;100.00;103528.34;5054630;28;20021;-56
2021/12/19 01:24:46;;;;;;;32.47;13.52;;;;;;;5.21;100.00;103531.97;5055071;28;20068;-56
2021/12/19 01:27:11;;;;;;;34.65;15.10;;;;;;;5.19;100.00;103526.69;5054963;28;20432;-56
2021/12/19 01:29:36;;;;;;;36.53;15.60;;;;;;;5.14;100.00;103520.97;5054164;28;20028;-56
2021/12/19 01:32:02;;;;;;;32.88;14.60;;;;;;;5.11;100.00;103535.94;5054763;28;20171;-56
2021/12/19 01:34:27;;;;;;;35.95;15.85;;;;;;;5.08;100.00;103532.75;5054780;28;20028;-56
2021/12/19 01:36:53;;;;;;;36.28;15.65;;;;;;;5.07;100.00;103525.56;5054798;28;20103;-57
2021/12/19 01:39:18;;;;;;;36.65;15.32;;;;;;;5.11;100.00;103524.97;5053890;28;20443;-57
2021/12/19 01:41:54;;;;;;;37.88;14.77;;;;;;;5.13;100.00;103514.63;5054159;28;20162;-57
2021/12/19 01:44:21;;;;;;;36.28;16.50;;;;;;;5.21;100.00;103518.25;5054022;28;20407;-58
2021/12/19 01:46:46;;;;;;;35.03;13.85;;;;;;;5.26;100.00;103522.06;5054504;28;20028;-57
2021/12/19 01:49:17;;;;;;;36.97;16.73;;;;;;;5.20;100.00;103508.31;5053785;28;20155;-57
2021/12/19 01:51:42;;;;;;;33.72;15.30;;;;;;;5.18;100.00;103519.50;5054189;28;20036;-57
2021/12/19 01:54:08;;;;;;;38.30;15.40;;;;;;;5.11;100.00;103522.22;5054140;28;20392;-58
2021/12/19 01:56:33;;;;;;;39.22;17.05;;;;;;;5.02;100.00;103515.19;5054451;28;20058;-58
2021/12/19 01:58:59;;;;;;;35.30;14.38;;;;;;;5.00;100.00;103504.44;5054289;28;20032;-58
2021/12/19 02:01:24;;;;;;;35.92;15.27;;;;;;;4.96;100.00;103508.63;5053967;28;20079;-56
2021/12/19 02:03:50;;;;;;;37.17;15.20;;;;;;;4.96;100.00;103511.38;5053407;28;20035;-56
2021/12/19 02:06:15;;;;;;;37.13;15.38;;;;;;;4.98;100.00;103503.78;5053722;28;20029;-56
2021/12/19 02:08:41;;;;;;;36.47;15.35;;;;;;;4.91;100.00;103507.56;5054096;28;20032;-57
2021/12/19 02:11:07;;;;;;;36.70;15.75;;;;;;;4.88;100.00;103503.31;5054021;28;20111;-56
2021/12/19 02:13:33;;;;;;;36.97;15.90;;;;;;;4.84;100.00;103508.34;5053320;28;20418;-58
2021/12/19 02:15:58;;;;;;;37.00;16.67;;;;;;;4.83;100.00;103503.91;5053710;28;20036;-57
2021/12/19 02:18:24;;;;;;;34.22;14.43;;;;;;;4.82;100.00;103509.59;5053453;28;20029;-56
2021/12/19 02:20:53;;;;;;;35.17;14.45;;;;;;;4.75;100.00;103495.84;5053596;28;20036;-57
2021/12/19 02:23:21;;;;;;;33.13;14.63;;;;;;;4.77;100.00;103503.91;5054047;28;20079;-57
2021/12/19 02:25:47;;;;;;;32.45;13.82;;;;;;;4.79;100.00;103496.28;5053668;28;20029;-57
2021/12/19 02:28:13;;;;;;;35.25;15.77;;;;;;;4.76;100.00;103486.56;5053307;28;20029;-59
2021/12/19 02:30:39;;;;;;;34.72;14.98;;;;;;;4.75;100.00;103490.38;5053558;28;20036;-58
2021/12/19 02:33:18;;;;;;;36.67;16.98;;;;;;;4.75;100.00;103484.88;5053145;28;20103;-59
2021/12/19 02:35:51;;;;;;;38.05;15.98;;;;;;;4.73;100.00;103483.41;5053875;28;20419;-57
2021/12/19 02:39:10;;;;;;;37.92;16.35;;;;;;;4.65;100.00;103482.50;5053906;28;20491;-58
2021/12/19 02:49:33;;;;;;;38.65;17.80;;;;;;;4.58;100.00;103480.75;5052649;28;20083;-59
2021/12/19 02:52:00;;;;;;;41.20;17.55;;;;;;;4.60;100.00;103475.94;5051215;28;20511;-58
2021/12/19 02:54:25;;;;;;;41.42;16.92;;;;;;;4.63;100.00;103470.91;5053129;28;20028;-58
2021/12/19 02:56:51;;;;;;;45.67;18.48;;;;;;;4.57;100.00;103474.44;5052509;28;20029;-58
2021/12/19 02:59:17;;;;;;;42.00;18.73;;;;;;;4.50;100.00;103473.53;5052394;28;20040;-55
2021/12/19 03:01:44;;;;;;;46.08;19.23;;;;;;;4.51;100.00;103467.00;5053266;28;20025;-60
2021/12/19 03:04:10;;;;;;;55.47;21.45;;;;;;;4.41;100.00;103464.63;5053166;28;20029;-57
2021/12/19 03:06:42;;;;;;;47.45;19.52;;;;;;;4.36;100.00;103456.16;5052932;28;20025;-56
2021/12/19 03:09:09;;;;;;;49.55;18.48;;;;;;;4.43;100.00;103462.53;5052429;28;20055;-58
2021/12/19 03:20:07;;;;;;;49.95;18.83;;;;;;;4.47;100.00;103458.34;5052109;28;20560;-55
2021/12/19 03:22:32;;;;;;;51.55;21.05;;;;;;;4.49;100.00;103450.78;5052695;28;20108;-55
2021/12/19 03:24:57;;;;;;;53.10;20.80;;;;;;;4.46;100.00;103440.19;5052324;28;20037;-56
2021/12/19 03:27:23;;;;;;;55.40;21.58;;;;;;;4.44;100.00;103438.72;5052007;28;20043;-54
2021/12/19 03:29:48;;;;;;;52.33;21.92;;;;;;;4.42;100.00;103440.78;5052490;28;20029;-56
2021/12/19 03:32:13;;;;;;;53.45;21.60;;;;;;;4.44;100.00;103436.81;5052608;28;20044;-55
2021/12/19 03:34:39;;;;;;;50.05;20.73;;;;;;;4.48;100.00;103442.75;5052581;28;20024;-56
2021/12/19 03:37:05;;;;;;;54.65;22.85;;;;;;;4.46;100.00;103437.44;5052134;28;20084;-55
2021/12/19 03:39:38;;;;;;;52.80;21.30;;;;;;;4.50;100.00;103436.00;5052116;28;20416;-55
2021/12/19 03:42:04;;;;;;;52.28;22.63;;;;;;;4.47;100.00;103435.56;5052076;28;20489;-55
2021/12/19 03:44:30;;;;;;;44.30;18.35;;;;;;;4.57;100.00;103421.50;5050760;28;20052;-55
2021/12/19 03:46:55;;;;;;;49.92;20.63;;;;;;;4.44;100.00;103422.25;5051038;28;20385;-55
2021/12/19 03:49:21;;;;;;;44.95;19.38;;;;;;;4.41;100.00;103422.66;5052188;28;20021;-56
2021/12/19 03:51:47;;;;;;;37.47;15.75;;;;;;;4.42;100.00;103425.22;5052627;28;20021;-57
2021/12/19 03:54:12;;;;;;;36.17;15.15;;;;;;;4.43;100.00;103423.31;5052439;28;20047;-56
2021/12/19 03:56:38;;;;;;;34.53;14.07;;;;;;;4.39;100.00;103427.50;5052181;28;20540;-56
2021/12/19 03:59:03;;;;;;;30.85;13.82;;;;;;;4.27;100.00;103428.06;5052204;28;20403;-56
2021/12/19 04:01:28;;;;;;;27.30;11.15;;;;;;;4.21;100.00;103421.50;5051175;28;20391;-57
2021/12/19 04:03:54;;;;;;;29.08;12.15;;;;;;;4.21;100.00;103428.84;5051848;28;20388;-58
2021/12/19 04:06:19;;;;;;;26.73;11.38;;;;;;;4.18;100.00;103419.13;5052259;28;20115;-58
2021/12/19 04:08:44;;;;;;;28.40;11.50;;;;;;;4.20;100.00;103417.06;5055495;28;20035;-57
2021/12/19 04:11:10;;;;;;;25.15;10.07;;;;;;;4.20;100.00;103414.31;5056075;28;20040;-56
2021/12/19 04:13:35;;;;;;;26.98;10.27;;;;;;;4.27;100.00;103405.28;5056067;28;20036;-57
2021/12/19 04:16:00;;;;;;;24.10;9.43;;;;;;;4.28;100.00;103396.00;5056060;28;20033;-57
2021/12/19 04:18:26;;;;;;;25.15;9.55;;;;;;;4.30;100.00;103388.44;5055995;28;20037;-58
2021/12/19 04:20:51;;;;;;;24.08;9.93;;;;;;;4.37;100.00;103386.59;5056660;28;20021;-58
2021/12/19 04:23:17;;;;;;;23.85;9.45;;;;;;;4.49;100.00;103389.59;5056045;28;20025;-57
2021/12/19 04:25:42;;;;;;;24.35;9.80;;;;;;;4.52;100.00;103381.84;5055887;28;20032;-56
2021/12/19 04:28:08;;;;;;;23.85;8.93;;;;;;;4.58;100.00;103374.66;5056080;28;20028;-57
2021/12/19 04:30:33;;;;;;;20.88;7.95;;;;;;;4.65;100.00;103371.97;5055831;28;20036;-56
2021/12/19 04:33:05;;;;;;;19.20;7.85;;;;;;;4.68;100.00;103366.09;5055375;28;20025;-57
2021/12/19 04:35:33;;;;;;;18.95;7.63;;;;;;;4.66;100.00;103359.94;5054724;28;20033;-57
2021/12/19 04:38:51;;;;;;;19.30;7.15;;;;;;;4.60;100.00;103352.56;5055829;28;20405;-57
2021/12/19 04:41:47;;;;;;;20.80;7.93;;;;;;;4.64;100.00;103356.56;5055896;28;20377;-55
2021/12/19 04:59:52;;;;;;;19.10;7.40;;;;;;;4.74;99.92;103334.25;5055533;28;20036;-56
2021/12/19 05:15:44;;;;;;;19.50;7.10;;;;;;;4.66;100.00;103327.03;5055439;28;20126;-58
2021/12/19 05:18:09;;;;;;;20.67;7.20;;;;;;;4.68;100.00;103347.72;5053884;28;20017;-56
2021/12/19 05:20:37;;;;;;;18.33;7.18;;;;;;;4.67;100.00;103337.84;5053602;28;20163;-56
2021/12/19 05:23:06;;;;;;;21.65;7.75;;;;;;;4.67;100.00;103336.97;5055064;28;20035;-57
2021/12/19 05:25:31;;;;;;;23.33;8.57;;;;;;;4.67;100.00;103331.47;5054773;28;20021;-58
2021/12/19 05:27:58;;;;;;;20.10;7.85;;;;;;;4.69;100.00;103334.88;5054608;28;20029;-56
2021/12/19 05:30:24;;;;;;;19.85;7.38;;;;;;;4.67;100.00;103342.44;5054474;28;20036;-56
2021/12/19 05:32:53;;;;;;;21.08;7.60;;;;;;;4.61;100.00;103327.66;5054745;28;20029;-56
2021/12/19 05:35:26;;;;;;;18.65;7.60;;;;;;;4.63;100.00;103341.19;5054595;28;20025;-56
2021/12/19 05:46:05;;;;;;;21.05;8.10;;;;;;;4.66;100.00;103329.78;5054965;28;20040;-57
2021/12/19 05:48:31;;;;;;;20.42;7.45;;;;;;;4.68;100.00;103331.28;5054263;28;20557;-57
2021/12/19 05:50:56;;;;;;;21.17;7.82;;;;;;;4.71;100.00;103315.47;5054372;28;20043;-57
2021/12/19 05:53:22;;;;;;;21.65;8.30;;;;;;;4.74;100.00;103312.31;5053948;28;20033;-55
2021/12/19 05:55:47;;;;;;;22.35;8.20;;;;;;;4.68;100.00;103300.28;5054486;28;20151;-56
2021/12/19 05:58:12;;;;;;;21.98;7.90;;;;;;;4.71;100.00;103305.34;5053874;28;20040;-57
2021/12/19 06:00:38;;;;;;;21.63;8.10;;;;;;;4.72;100.00;103315.28;5054029;28;20053;-57
2021/12/19 06:03:04;;;;;;;22.08;7.85;;;;;;;4.69;100.00;103310.19;5053937;28;20041;-57
2021/12/19 06:05:29;;;;;;;25.65;9.40;;;;;;;4.68;100.00;103319.47;5053800;28;20025;-55
2021/12/19 06:07:55;;;;;;;18.58;7.30;;;;;;;4.73;100.00;103318.84;5053429;28;20102;-55
2021/12/19 06:10:20;;;;;;;20.98;7.68;;;;;;;4.74;100.00;103301.34;5053827;28;20108;-57
2021/12/19 06:12:46;;;;;;;20.35;7.60;;;;;;;4.75;100.00;103303.88;5053733;28;20029;-57
2021/12/19 06:15:12;;;;;;;21.58;7.90;;;;;;;4.74;100.00;103307.66;5053390;28;20036;-58
2021/12/19 06:17:44;;;;;;;23.08;8.43;;;;;;;4.74;100.00;103307.66;5053686;28;20136;-56
2021/12/19 06:20:10;;;;;;;24.08;9.43;;;;;;;4.77;100.00;103311.91;5052044;28;20091;-57
2021/12/19 06:22:36;;;;;;;20.92;7.57;;;;;;;4.76;100.00;103311.06;5053314;28;20476;-59
2021/12/19 06:25:03;;;;;;;28.88;11.90;;;;;;;4.79;100.00;103316.13;5053373;28;20029;-58
2021/12/19 06:27:28;;;;;;;27.90;9.32;;;;;;;4.78;100.00;103308.97;5053908;28;20519;-58
2021/12/19 06:29:54;;;;;;;34.03;12.10;;;;;;;4.80;100.00;103300.50;5053392;28;20108;-58
2021/12/19 06:32:19;;;;;;;35.45;14.45;;;;;;;4.81;100.00;103296.72;5052754;28;20083;-58
2021/12/19 06:34:44;;;;;;;23.98;8.43;;;;;;;4.81;100.00;103297.59;5053083;28;20476;-56
2021/12/19 06:37:10;;;;;;;19.77;7.47;;;;;;;4.84;100.00;103291.66;5053222;28;20116;-56
2021/12/19 06:39:38;;;;;;;23.73;7.70;;;;;;;4.84;100.00;103283.44;5053251;28;20028;-58
2021/12/19 06:42:06;;;;;;;22.40;7.93;;;;;;;4.80;100.00;103271.22;5053239;28;20032;-58
2021/12/19 06:44:32;;;;;;;23.45;8.48;;;;;;;4.85;100.00;103273.31;5053020;28;20051;-57
2021/12/19 06:46:58;;;;;;;24.30;9.07;;;;;;;4.89;100.00;103277.31;5052900;28;20460;-57
2021/12/19 06:49:23;;;;;;;22.02;8.82;;;;;;;4.89;100.00;103273.75;5052863;28;20104;-59
2021/12/19 06:51:49;;;;;;;20.75;8.32;;;;;;;4.89;100.00;103271.00;5051626;28;20078;-59
2021/12/19 06:54:14;;;;;;;23.67;8.30;;;;;;;4.89;100.00;103262.78;5052729;28;20025;-57
2021/12/19 06:56:39;;;;;;;25.55;8.68;;;;;;;4.90;100.00;103261.72;5052748;28;20040;-57
2021/12/19 06:59:05;;;;;;;23.13;8.68;;;;;;;4.92;100.00;103259.59;5052866;28;20029;-57
2021/12/19 07:01:30;;;;;;;23.42;8.57;;;;;;;4.94;100.00;103265.72;5052858;28;20448;-58
2021/12/19 07:03:55;;;;;;;23.88;8.90;;;;;;;4.91;100.00;103257.94;5052469;28;20041;-57
2021/12/19 07:06:21;;;;;;;22.08;8.25;;;;;;;4.89;100.00;103255.38;5051158;28;20032;-56
2021/12/19 07:08:46;;;;;;;20.92;8.13;;;;;;;4.89;100.00;103262.78;5052632;28;20035;-57
2021/12/19 07:11:12;;;;;;;24.70;8.93;;;;;;;4.93;100.00;103259.41;5052483;28;20043;-57
2021/12/19 07:13:37;;;;;;;23.67;8.00;;;;;;;4.94;100.00;103263.84;5053133;28;20033;-58
2021/12/19 07:16:04;;;;;;;26.13;9.52;;;;;;;4.91;100.00;103264.25;5052784;28;20104;-58
2021/12/19 07:18:30;;;;;;;23.13;8.95;;;;;;;4.91;100.00;103257.94;5051993;28;20077;-58
2021/12/19 07:20:55;;;;;;;22.17;8.57;;;;;;;4.90;100.00;103261.72;5052761;28;20028;-57
2021/12/19 07:23:21;;;;;;;22.48;8.98;;;;;;;4.95;100.00;103260.06;5053001;28;20547;-58
2021/12/19 07:25:47;;;;;;;24.63;9.70;;;;;;;4.95;100.00;103259.19;5053033;28;20107;-58
2021/12/19 07:28:13;;;;;;;24.17;8.88;;;;;;;4.99;100.00;103265.97;5052920;28;20109;-58
2021/12/19 07:30:40;;;;;;;23.58;8.50;;;;;;;5.00;100.00;103263.00;5052796;28;20021;-57
2021/12/19 07:33:07;;;;;;;22.50;8.65;;;;;;;4.97;100.00;103259.84;5052619;28;20029;-57
2021/12/19 07:35:37;;;;;;;21.95;9.05;;;;;;;5.00;100.00;103253.94;5051492;28;20392;-57
2021/12/19 07:38:03;;;;;;;22.13;8.70;;;;;;;5.07;100.00;103248.44;5053000;28;20025;-57
2021/12/19 07:40:35;;;;;;;22.17;8.68;;;;;;;5.07;100.00;103242.94;5052654;28;20542;-58
2021/12/19 07:43:04;;;;;;;23.23;9.52;;;;;;;5.09;100.00;103243.59;5054701;28;20053;-57
2021/12/19 07:45:31;;;;;;;23.15;9.70;;;;;;;5.11;100.00;103241.50;5056777;28;20021;-57
2021/12/19 07:47:56;;;;;;;24.02;8.90;;;;;;;5.08;100.00;103234.53;5056607;28;20660;-58
2021/12/19 07:50:22;;;;;;;23.13;9.98;;;;;;;5.13;100.00;103240.22;5056722;28;20043;-58
2021/12/19 07:52:48;;;;;;;22.20;9.63;;;;;;;5.16;100.00;103233.47;5056723;28;20025;-58
2021/12/19 07:55:13;;;;;;;25.92;11.30;;;;;;;5.09;100.00;103224.38;5056699;28;20070;-57
2021/12/19 07:57:40;;;;;;;24.30;10.05;;;;;;;5.13;100.00;103231.16;5056633;28;20036;-57
2021/12/19 08:00:07;;;;;;;24.05;9.90;;;;;;;5.09;100.00;103216.16;5056489;28;20115;-57
2021/12/19 08:02:32;;;;;;;23.55;9.85;;;;;;;5.19;100.00;103223.97;5056491;28;20033;-58
2021/12/19 08:04:58;;;;;;;24.13;10.90;;;;;;;5.26;100.00;103224.81;5056531;28;20025;-58
2021/12/19 08:07:24;;;;;;;25.13;10.50;;;;;;;5.21;100.00;103230.94;5056141;28;20383;-57
2021/12/19 08:10:12;;;;;;;24.38;10.70;;;;;;;5.22;100.00;103229.03;5055891;28;20032;-57
2021/12/19 08:12:37;;;;;;;24.95;10.32;;;;;;;5.19;100.00;103230.31;5054175;28;20488;-57
2021/12/19 08:15:04;;;;;;;24.75;10.32;;;;;;;5.24;100.00;103211.28;5056161;28;20044;-56
2021/12/19 08:17:31;;;;;;;25.13;11.50;;;;;;;5.28;100.00;103225.47;5056412;28;20037;-57
2021/12/19 08:19:57;;;;;;;25.98;10.45;;;;;;;5.26;100.00;103222.91;5056327;28;20025;-57
2021/12/19 08:22:22;;;;;;;26.30;10.90;;;;;;;5.34;100.00;103215.53;5056278;28;20028;-57
2021/12/19 08:24:49;;;;;;;25.30;10.68;;;;;;;5.33;100.00;103211.94;5055672;28;20025;-57
2021/12/19 08:27:15;;;;;;;24.35;9.98;;;;;;;5.34;100.00;103216.38;5055570;28;20025;-57
2021/12/19 08:29:40;;;;;;;25.73;10.43;;;;;;;5.38;100.00;103223.13;5055752;28;20047;-57
2021/12/19 08:32:05;;;;;;;25.15;10.02;;;;;;;5.40;100.00;103221.00;5055937;28;20468;-57
2021/12/19 08:34:31;;;;;;;23.02;10.07;;;;;;;5.37;100.00;103224.19;5055374;28;20108;-57
2021/12/19 08:36:56;;;;;;;22.95;9.77;;;;;;;5.37;100.00;103221.44;5055735;28;20107;-57
2021/12/19 08:39:22;;;;;;;22.40;9.43;;;;;;;5.40;100.00;103223.75;5055831;28;20036;-58
2021/12/19 08:41:47;;;;;;;22.60;9.40;;;;;;;5.41;100.00;103217.19;5055814;28;20108;-56
2021/12/19 08:44:13;;;;;;;23.85;10.05;;;;;;;5.42;100.00;103220.81;5056068;28;20133;-57
2021/12/19 08:46:40;;;;;;;22.42;9.15;;;;;;;5.38;100.00;103222.28;5055791;28;20361;-57
2021/12/19 08:49:06;;;;;;;21.90;8.82;;;;;;;5.38;100.00;103219.53;5055618;28;20418;-58
2021/12/19 08:51:32;;;;;;;21.88;8.55;;;;;;;5.46;100.00;103213.81;5054710;28;20076;-57
2021/12/19 08:54:01;;;;;;;21.50;9.05;;;;;;;5.46;100.00;103213.81;5054963;28;20021;-57
2021/12/19 08:56:28;;;;;;;23.63;10.00;;;;;;;5.41;100.00;103217.19;5055186;28;20029;-56
2021/12/19 08:58:53;;;;;;;24.08;8.65;;;;;;;5.44;100.00;103211.28;5055007;28;20069;-57
2021/12/19 09:01:19;;;;;;;22.23;8.90;;;;;;;5.43;100.00;103215.09;5054549;28;20527;-57
2021/12/19 09:03:44;;;;;;;22.60;8.80;;;;;;;5.40;100.00;103214.69;5054821;28;20104;-58
2021/12/19 09:06:10;;;;;;;22.40;9.23;;;;;;;5.32;100.00;103199.25;5054937;28;20017;-56
2021/12/19 09:08:35;;;;;;;22.70;10.10;;;;;;;5.29;100.00;103208.78;5054507;28;20028;-56
2021/12/19 09:11:00;;;;;;;22.55;8.55;;;;;;;5.29;100.00;103211.50;5055010;28;20356;-57
2021/12/19 09:13:26;;;;;;;21.30;7.97;;;;;;;5.40;100.00;103207.28;5054983;28;20076;-58
2021/12/19 09:15:51;;;;;;;21.95;8.70;;;;;;;5.37;100.00;103204.09;5053708;28;20101;-57
2021/12/19 09:18:18;;;;;;;22.35;8.43;;;;;;;5.35;100.00;103195.22;5055116;28;20058;-56
2021/12/19 09:20:43;;;;;;;24.40;9.00;;;;;;;5.34;100.00;103205.38;5054170;28;20032;-56
2021/12/19 09:23:09;;;;;;;22.48;8.73;;;;;;;5.39;100.00;103205.56;5054337;28;20387;-56
2021/12/19 09:25:36;;;;;;;22.48;9.02;;;;;;;5.34;100.00;103201.81;5054465;28;20361;-57
2021/12/19 09:28:02;;;;;;;22.33;8.90;;;;;;;5.33;100.00;103209.19;5053837;28;20025;-57
2021/12/19 09:30:27;;;;;;;21.30;8.05;;;;;;;5.35;100.00;103207.06;5053095;28;20029;-57
2021/12/19 09:32:53;;;;;;;21.67;8.93;;;;;;;5.37;100.00;103204.09;5054417;28;20017;-57
2021/12/19 09:35:18;;;;;;;23.38;9.77;;;;;;;5.37;100.00;103201.38;5054062;28;20043;-57
2021/12/19 09:37:44;;;;;;;22.88;9.70;;;;;;;5.37;100.00;103204.97;5054310;28;20063;-57
2021/12/19 09:40:12;;;;;;;20.55;8.02;;;;;;;5.42;100.00;103198.84;5053996;28;20033;-57
2021/12/19 09:42:46;;;;;;;21.33;8.45;;;;;;;5.49;100.00;103204.28;5054107;28;20520;-56
2021/12/19 09:45:11;;;;;;;19.58;7.47;;;;;;;5.46;100.00;103202.84;5054192;28;20531;-56
2021/12/19 09:47:37;;;;;;;22.15;8.82;;;;;;;5.46;100.00;103191.84;5054171;28;20178;-57
2021/12/19 09:50:05;;;;;;;21.55;8.00;;;;;;;5.50;100.00;103197.75;5041426;28;20029;-58
2021/12/19 09:52:31;;;;;;;20.58;8.50;;;;;;;5.50;100.00;103208.72;5032505;28;20041;-58
2021/12/19 09:54:56;;;;;;;22.17;8.07;;;;;;;5.49;100.00;103205.16;5032291;28;20033;-58
2021/12/19 09:57:23;;;;;;;19.75;7.65;;;;;;;5.55;100.00;103214.44;5032283;28;20030;-58
2021/12/19 09:59:48;;;;;;;19.27;7.35;;;;;;;5.59;100.00;103208.31;5032270;28;20108;-58
2021/12/19 10:02:15;;;;;;;20.60;7.80;;;;;;;5.61;100.00;103217.19;5031477;28;20454;-57
2021/12/19 10:04:42;;;;;;;18.33;7.10;;;;;;;5.67;100.00;103215.47;5031872;28;20076;-57
2021/12/19 10:07:18;;;;;;;19.73;7.68;;;;;;;5.68;100.00;103206.16;5029779;28;20060;-57
2021/12/19 10:09:56;;;;;;;21.15;7.57;;;;;;;5.69;100.00;103191.38;5031995;28;20112;-57
2021/12/19 10:12:48;;;;;;;18.60;6.43;;;;;;;5.71;100.00;103192.00;5032173;28;20037;-58
2021/12/19 10:15:19;;;;;;;17.10;6.00;;;;;;;5.69;100.00;103179.56;5031951;28;20029;-56
2021/12/19 10:17:46;;;;;;;13.93;5.35;;;;;;;5.73;100.00;103194.53;5031232;28;20397;-56
2021/12/19 10:20:14;;;;;;;14.60;5.70;;;;;;;5.74;100.00;103199.84;5031608;28;20091;-56
2021/12/19 10:22:47;;;;;;;17.15;5.80;;;;;;;5.63;100.00;103184.00;5031881;28;20041;-57
2021/12/19 10:25:19;;;;;;;14.70;5.72;;;;;;;5.67;100.00;103184.41;5031680;28;20033;-56
2021/12/19 10:27:49;;;;;;;15.27;5.93;;;;;;;5.67;100.00;103182.50;5030719;28;20493;-56
2021/12/19 10:30:23;;;;;;;14.57;5.50;;;;;;;5.69;100.00;103176.81;5031610;28;20401;-56
2021/12/19 10:32:57;;;;;;;;;;;;;;;5.75;100.00;103185.03;5032059;28;20138;-56
2021/12/19 10:35:33;;;;;;;15.18;5.40;;;;;;;5.75;100.00;103168.56;5031723;28;19913;-55
2021/12/19 10:38:00;;;;;;;10.88;4.85;;;;;;;5.72;100.00;103163.50;5031753;28;20083;-56
2021/12/19 10:40:27;;;;;;;14.80;5.18;;;;;;;5.74;100.00;103166.88;5031703;28;20119;-56
2021/12/19 10:43:01;;;;;;;14.95;5.32;;;;;;;5.71;100.00;103160.97;5031000;28;20516;-58
2021/12/19 10:45:43;;;;;;;18.60;7.78;;;;;;;5.73;100.00;103164.31;5031596;28;20048;-55
2021/12/19 10:48:22;;;;;;;15.52;5.47;;;;;;;5.73;100.00;103161.56;5030981;28;20464;-55
2021/12/19 10:50:50;;;;;;;14.32;5.28;;;;;;;5.75;100.00;103160.31;5031333;28;20090;-55
2021/12/19 10:53:16;;;;;;;18.65;6.68;;;;;;;5.76;100.00;103161.97;5030900;28;20095;-57
2021/12/19 10:55:47;;;;;;;15.07;5.60;;;;;;;5.78;100.00;103159.03;5031315;28;20030;-57
2021/12/19 10:58:24;;;;;;;14.65;6.03;;;;;;;5.81;100.00;103150.34;5030769;28;20029;-58
2021/12/19 11:01:03;;;;;;;11.70;4.85;;;;;;;5.73;100.00;103145.09;5031161;28;20036;-55
2021/12/19 11:03:33;;;;;;;13.90;6.00;;;;;;;5.80;100.00;103139.59;5031001;28;20067;-59
2021/12/19 11:05:58;;;;;;;13.68;4.88;;;;;;;5.82;100.00;103146.53;5031057;28;20477;-57
2021/12/19 11:08:30;;;;;;;12.13;4.95;;;;;;;5.78;100.00;103137.06;5029283;28;20104;-58
2021/12/19 11:10:55;;;;;;;9.10;4.47;;;;;;;5.78;100.00;103126.91;5031128;28;20040;-59
2021/12/19 11:13:21;;;;;;;11.35;4.60;;;;;;;5.77;100.00;103111.47;5031041;28;20025;-59
2021/12/19 11:15:49;;;;;;;9.07;4.63;;;;;;;5.83;99.94;103117.19;5030581;28;20053;-55
2021/12/19 11:18:15;;;;;;;9.38;4.22;;;;;;;5.88;99.37;103122.84;5030075;28;20033;-56
2021/12/19 11:20:40;;;;;;;8.15;4.40;;;;;;;5.89;99.04;103119.03;5030899;28;20091;-57
2021/12/19 11:23:05;;;;;;;5.78;4.13;;;;;;;5.90;98.76;103109.75;5030621;28;20121;-57
2021/12/19 11:25:31;;;;;;;9.48;4.55;;;;;;;5.96;98.85;103102.53;5030945;28;20041;-59
2021/12/19 11:27:59;;;;;;;8.27;4.50;;;;;;;5.95;98.17;103090.72;5033434;28;20109;-57
2021/12/19 11:30:25;;;;;;;12.10;4.80;;;;;;;5.98;97.57;103092.16;5050636;28;20040;-56
2021/12/19 11:33:22;;;;;;;10.85;4.50;;;;;;;5.98;98.37;103093.00;5050663;28;20021;-59
2021/12/19 11:35:50;;;;;;;10.80;4.90;;;;;;;6.00;98.55;103096.41;5049268;28;20039;-57
2021/12/19 11:38:21;;;;;;;9.93;4.55;;;;;;;6.07;98.52;103088.13;5050737;28;20035;-57
2021/12/19 11:40:47;;;;;;;8.35;4.55;;;;;;;6.06;97.92;103084.53;5050222;28;20099;-57
2021/12/19 11:43:13;;;;;;;8.68;4.50;;;;;;;6.10;98.20;103082.19;5050069;28;20492;-56
2021/12/19 11:45:55;;;;;;;10.18;4.78;;;;;;;6.12;97.66;103076.47;5050676;28;20032;-57
2021/12/19 11:48:25;;;;;;;8.43;4.72;;;;;;;6.16;97.76;103081.31;5050669;28;20116;-57
2021/12/19 11:50:56;;;;;;;9.25;4.70;;;;;;;6.11;97.75;103072.88;5050463;28;20029;-57
2021/12/19 11:53:25;;;;;;;10.48;5.00;;;;;;;6.17;97.83;103074.75;5050605;28;20051;-57
2021/12/19 11:56:09;;;;;;;10.60;5.00;;;;;;;6.07;96.85;103061.47;5049004;28;20535;-57
2021/12/19 11:59:16;;;;;;;12.13;5.00;;;;;;;6.09;97.42;103069.53;5050770;28;20100;-57
2021/12/19 12:01:42;;;;;;;12.50;5.30;;;;;;;6.07;97.66;103068.91;5050415;28;20091;-56
2021/12/19 12:04:17;;;;;;;14.57;5.82;;;;;;;5.99;97.28;103056.25;5050406;28;20028;-57
2021/12/19 12:06:53;;;;;;;15.50;6.28;;;;;;;5.98;98.13;103057.28;5050521;28;20025;-57
2021/12/19 12:09:24;;;;;;;14.02;5.60;;;;;;;6.00;98.22;103052.44;5050337;28;20024;-57
2021/12/19 12:12:03;;;;;;;15.45;5.75;;;;;;;6.00;98.25;103055.19;5050346;28;20098;-56
2021/12/19 12:14:33;;;;;;;17.02;6.20;;;;;;;6.00;98.59;103054.38;5050240;28;20025;-58
2021/12/19 12:17:08;;;;;;;14.57;5.70;;;;;;;5.94;97.60;103034.91;5050545;28;20032;-56
2021/12/19 12:19:46;;;;;;;14.18;5.70;;;;;;;5.96;98.04;103042.09;5050268;28;20104;-57